Time;durP1;ratioP1;P1;durP2;ratioP2;P2;SDS_P1;SDS_P2;PMS_P1;PMS_P2;Temp;Humidity;BMP_temperature;BMP_pressure;BME280_temperature;BME280_humidity;BME280_pressure;Samples;Min_cycle;Max_cycle;Signal;HPM_P1;HPM_P2
2021/12/10 00:01:48;;;;;;;1.55;1.13;;;19.70;46.70;;;;;;5046195;28;20052;-56
2021/12/10 00:04:18;;;;;;;3.22;0.93;;;19.90;46.30;;;;;;5046076;28;20052;-55
2021/12/10 00:06:48;;;;;;;1.10;0.93;;;20.00;46.00;;;;;;5043040;28;20115;-57
2021/12/10 00:09:19;;;;;;;2.20;1.52;;;20.20;45.70;;;;;;5042860;28;20048;-55
2021/12/10 00:11:50;;;;;;;1.58;1.10;;;20.30;45.30;;;;;;5042951;28;20047;-57
2021/12/10 00:14:19;;;;;;;1.75;1.65;;;20.50;44.90;;;;;;5046634;28;20048;-51
2021/12/10 00:16:47;;;;;;;1.63;1.38;;;20.60;44.60;;;;;;5045977;28;20045;-55
2021/12/10 00:19:27;;;;;;;1.98;1.27;;;20.70;44.80;;;;;;5045457;28;20104;-56
2021/12/10 00:21:56;;;;;;;2.30;2.10;;;20.80;43.90;;;;;;5045493;28;20894;-55
2021/12/10 00:24:26;;;;;;;2.17;1.98;;;20.80;43.70;;;;;;5045553;28;20487;-51
2021/12/10 00:26:56;;;;;;;1.88;1.77;;;20.90;43.50;;;;;;5045449;28;20049;-55
2021/12/10 00:29:24;;;;;;;3.55;1.77;;;20.90;43.20;;;;;;5043510;28;20124;-56
2021/12/10 00:32:00;;;;;;;1.75;1.48;;;21.00;43.10;;;;;;5045940;28;20045;-55
2021/12/10 00:34:31;;;;;;;1.75;1.65;;;21.00;42.90;;;;;;5044985;28;20055;-55
2021/12/10 00:37:01;;;;;;;2.25;2.15;;;21.00;42.80;;;;;;5045351;28;20068;-54
2021/12/10 00:39:31;;;;;;;1.83;1.50;;;21.00;42.80;;;;;;5047326;28;20161;-58
2021/12/10 00:42:02;;;;;;;3.05;1.75;;;21.00;42.70;;;;;;5045510;28;20051;-57
2021/12/10 00:44:30;;;;;;;2.05;1.92;;;21.10;42.70;;;;;;5044575;28;20057;-51
2021/12/10 00:46:57;;;;;;;0.82;0.82;;;21.10;42.60;;;;;;5046765;28;20055;-51
2021/12/10 00:49:24;;;;;;;1.33;1.23;;;21.10;42.50;;;;;;5045268;28;20052;-50
2021/12/10 00:51:51;;;;;;;2.13;1.48;;;21.10;42.40;;;;;;5045094;28;20036;-51
2021/12/10 00:54:18;;;;;;;1.42;1.08;;;21.10;42.40;;;;;;5044872;28;20047;-54
2021/12/10 00:56:46;;;;;;;1.95;1.85;;;21.10;42.30;;;;;;5044607;28;20061;-52
2021/12/10 00:59:17;;;;;;;2.33;2.22;;;21.10;42.30;;;;;;5046015;28;20497;-57
2021/12/10 01:01:45;;;;;;;1.27;1.17;;;21.10;42.20;;;;;;5046133;28;20501;-54
2021/12/10 01:04:15;;;;;;;1.40;1.30;;;21.10;42.20;;;;;;5045474;28;20048;-53
2021/12/10 01:06:46;;;;;;;1.00;1.00;;;21.10;42.10;;;;;;5044226;28;20049;-52
2021/12/10 01:09:22;;;;;;;1.65;1.55;;;21.10;42.10;;;;;;5045095;28;20098;-54
2021/12/10 01:11:54;;;;;;;1.40;1.27;;;21.10;42.10;;;;;;5042080;28;20040;-52
2021/12/10 01:14:37;;;;;;;5.13;1.55;;;21.10;42.10;;;;;;5044509;28;20144;-54
2021/12/10 01:25:36;;;;;;;6.60;1.13;;;21.10;42.60;;;;;;4976036;28;20043;-49
2021/12/10 01:28:06;;;;;;;2.17;1.33;;;21.10;42.40;;;;;;4978426;28;20713;-49
2021/12/10 01:30:39;;;;;;;4.18;1.35;;;21.20;42.30;;;;;;4975580;28;20526;-51
2021/12/10 01:33:09;;;;;;;1.95;1.52;;;21.20;42.20;;;;;;4978555;28;20050;-55
2021/12/10 01:35:40;;;;;;;4.07;1.75;;;21.20;42.20;;;;;;4979689;28;20081;-51
2021/12/10 01:38:09;;;;;;;4.00;1.77;;;21.30;42.10;;;;;;4982785;28;20044;-51
2021/12/10 01:40:40;;;;;;;2.20;1.30;;;21.30;42.00;;;;;;4977977;28;20050;-53
2021/12/10 01:43:11;;;;;;;2.92;1.52;;;21.40;41.90;;;;;;4980658;28;20144;-52
2021/12/10 01:45:47;;;;;;;2.65;1.58;;;21.40;41.80;;;;;;4977574;28;20042;-54
2021/12/10 01:48:18;;;;;;;1.52;1.40;;;21.50;41.70;;;;;;4974286;28;20097;-51
2021/12/10 01:50:46;;;;;;;3.88;1.00;;;21.50;41.60;;;;;;4976144;28;20056;-52
2021/12/10 01:53:16;;;;;;;3.25;2.08;;;21.50;41.40;;;;;;4978825;28;20066;-50
2021/12/10 01:55:46;;;;;;;4.00;2.08;;;21.40;41.40;;;;;;5043976;28;20059;-47
2021/12/10 01:58:16;;;;;;;3.20;1.50;;;21.20;41.60;;;;;;5042511;28;20040;-47
2021/12/10 02:00:49;;;;;;;9.38;2.08;;;21.00;41.90;;;;;;5040880;28;20115;-49
2021/12/10 02:03:17;;;;;;;5.35;1.17;;;20.80;42.20;;;;;;5043689;28;20128;-51
2021/12/10 02:05:44;;;;;;;4.13;1.10;;;20.60;42.60;;;;;;5044533;28;20045;-48
2021/12/10 02:08:11;;;;;;;3.38;2.63;;;20.40;42.90;;;;;;5027736;28;20139;-52
2021/12/10 02:10:39;;;;;;;4.50;1.60;;;20.20;43.10;;;;;;5044985;28;20512;-48
2021/12/10 02:13:06;;;;;;;2.03;1.73;;;20.00;43.40;;;;;;5044020;28;20043;-48
2021/12/10 02:15:34;;;;;;;1.90;1.45;;;19.90;43.70;;;;;;5044353;28;20049;-50
2021/12/10 02:18:04;;;;;;;1.02;1.00;;;19.80;43.90;;;;;;5044466;28;20102;-48
2021/12/10 02:20:35;;;;;;;2.47;0.95;;;19.70;44.20;;;;;;5043026;28;20659;-47
2021/12/10 02:23:07;;;;;;;3.15;0.57;;;19.50;44.30;;;;;;5045958;28;20413;-50
2021/12/10 02:25:37;;;;;;;1.02;0.88;;;19.40;44.60;;;;;;5043949;28;20047;-51
2021/12/10 02:28:06;;;;;;;1.85;0.85;;;19.30;44.80;;;;;;5039950;28;20061;-50
2021/12/10 02:30:33;;;;;;;3.83;1.25;;;19.20;45.00;;;;;;5044227;28;20048;-49
2021/12/10 02:33:01;;;;;;;0.85;0.68;;;19.10;45.30;;;;;;5044277;28;20124;-49
2021/12/10 02:35:29;;;;;;;0.70;0.70;;;19.00;45.40;;;;;;5044625;28;20394;-50
2021/12/10 02:37:56;;;;;;;1.35;1.25;;;18.90;45.60;;;;;;5044075;28;20047;-47
2021/12/10 02:40:27;;;;;;;0.75;0.65;;;18.90;45.80;;;;;;5044424;28;20055;-52
2021/12/10 02:42:55;;;;;;;0.75;0.70;;;18.80;46.00;;;;;;5044539;28;20045;-48
2021/12/10 02:45:24;;;;;;;0.30;0.20;;;18.80;46.10;;;;;;5044274;28;20742;-49
2021/12/10 02:47:52;;;;;;;0.70;0.70;;;18.70;46.30;;;;;;5044373;28;20045;-47
2021/12/10 02:50:23;;;;;;;1.35;0.47;;;18.60;46.40;;;;;;5044470;28;20037;-49
2021/12/10 02:52:50;;;;;;;0.68;0.60;;;18.60;46.60;;;;;;5040898;28;20123;-50
2021/12/10 02:55:18;;;;;;;1.90;0.50;;;18.50;46.90;;;;;;5043870;28;20044;-50
2021/12/10 02:57:51;;;;;;;0.50;0.32;;;18.50;47.10;;;;;;5048393;28;20141;-52
2021/12/10 03:00:21;;;;;;;0.65;0.52;;;18.50;47.30;;;;;;5048041;28;20136;-47
2021/12/10 03:02:49;;;;;;;0.75;0.28;;;18.40;47.50;;;;;;5048094;28;20045;-48
2021/12/10 03:05:16;;;;;;;0.55;0.43;;;18.40;47.70;;;;;;5048676;28;20045;-46
2021/12/10 03:07:43;;;;;;;0.40;0.20;;;18.30;47.90;;;;;;5048715;28;20045;-48
2021/12/10 03:10:13;;;;;;;0.77;0.30;;;18.30;48.00;;;;;;5047797;28;20040;-48
2021/12/10 03:12:40;;;;;;;0.40;0.20;;;18.30;48.20;;;;;;5047909;28;20049;-51
2021/12/10 03:15:10;;;;;;;0.55;0.55;;;18.20;48.30;;;;;;5048080;28;20253;-49
2021/12/10 03:17:38;;;;;;;4.60;1.52;;;18.20;48.50;;;;;;5047969;28;20045;-46
2021/12/10 03:20:09;;;;;;;2.40;0.30;;;18.20;48.60;;;;;;5049132;28;20043;-47
2021/12/10 03:22:37;;;;;;;1.73;0.22;;;18.20;48.70;;;;;;5047397;28;20587;-51
2021/12/10 03:25:05;;;;;;;1.50;0.10;;;18.10;48.70;;;;;;5047054;28;20433;-49
2021/12/10 03:27:33;;;;;;;0.20;0.20;;;18.10;48.80;;;;;;5046115;28;20049;-49
2021/12/10 03:30:00;;;;;;;0.20;0.20;;;18.10;48.90;;;;;;5047866;28;20032;-48
2021/12/10 03:32:32;;;;;;;0.22;0.20;;;18.20;49.00;;;;;;5047774;28;20107;-46
2021/12/10 03:35:03;;;;;;;0.32;0.20;;;18.10;49.20;;;;;;5047351;28;20064;-48
2021/12/10 03:37:30;;;;;;;0.55;0.10;;;18.10;49.30;;;;;;5047081;28;20037;-49
2021/12/10 03:39:57;;;;;;;0.10;0.10;;;18.10;49.30;;;;;;5047015;28;20493;-46
2021/12/10 03:42:24;;;;;;;0.10;0.10;;;18.10;49.50;;;;;;5047285;28;20037;-49
2021/12/10 03:44:52;;;;;;;0.30;0.10;;;18.10;49.70;;;;;;5047245;28;20052;-46
2021/12/10 03:47:19;;;;;;;0.15;0.10;;;18.00;49.70;;;;;;5047272;28;20041;-47
2021/12/10 03:49:47;;;;;;;0.30;0.20;;;18.00;49.80;;;;;;5047430;28;20138;-45
2021/12/10 03:52:15;;;;;;;0.10;0.10;;;18.00;49.90;;;;;;5046684;28;20049;-46
2021/12/10 03:54:43;;;;;;;1.98;0.00;;;18.00;49.90;;;;;;5046710;28;20051;-46
2021/12/10 03:57:11;;;;;;;1.00;0.10;;;18.00;50.10;;;;;;5046502;28;20519;-47
2021/12/10 03:59:39;;;;;;;0.10;0.10;;;18.00;50.20;;;;;;5045247;28;20045;-46
2021/12/10 04:02:09;;;;;;;1.00;0.10;;;18.00;50.40;;;;;;5048305;28;20049;-47
2021/12/10 04:04:40;;;;;;;2.38;0.10;;;18.00;50.40;;;;;;5046408;28;20041;-46
2021/12/10 04:07:11;;;;;;;0.22;0.10;;;18.00;50.50;;;;;;5045659;28;20506;-46
2021/12/10 04:09:40;;;;;;;0.45;0.10;;;18.00;50.60;;;;;;5046464;28;20047;-47
2021/12/10 04:12:08;;;;;;;0.20;0.20;;;18.00;50.50;;;;;;5046454;28;20127;-45
2021/12/10 04:14:36;;;;;;;0.28;0.10;;;17.90;50.60;;;;;;5039851;28;20040;-46
2021/12/10 04:17:05;;;;;;;0.13;0.10;;;18.00;50.60;;;;;;5048194;28;20148;-47
2021/12/10 04:19:34;;;;;;;0.50;0.50;;;18.00;50.80;;;;;;5046607;28;20136;-46
2021/12/10 04:22:03;;;;;;;0.25;0.17;;;18.00;50.90;;;;;;5045933;28;20706;-47
2021/12/10 04:24:34;;;;;;;0.00;0.00;;;18.00;50.90;;;;;;5045955;28;20041;-48
2021/12/10 04:27:03;;;;;;;0.40;0.20;;;18.00;50.90;;;;;;5046391;28;20111;-49
2021/12/10 04:29:30;;;;;;;0.17;0.17;;;18.00;50.90;;;;;;5046197;28;20567;-47
2021/12/10 04:31:58;;;;;;;1.65;0.00;;;18.00;51.00;;;;;;5048055;28;20524;-46
2021/12/10 04:34:26;;;;;;;0.10;0.00;;;18.00;51.00;;;;;;5045971;28;20049;-51
2021/12/10 04:36:56;;;;;;;0.20;0.10;;;18.00;51.00;;;;;;5045273;28;20048;-51
2021/12/10 04:39:23;;;;;;;0.20;0.10;;;18.00;51.10;;;;;;5046454;28;20041;-50
2021/12/10 04:41:52;;;;;;;2.40;1.00;;;18.00;51.10;;;;;;5045890;28;20037;-46
2021/12/10 04:44:19;;;;;;;0.10;0.10;;;18.00;51.10;;;;;;5046641;28;20045;-52
2021/12/10 04:46:46;;;;;;;1.55;0.10;;;18.00;51.20;;;;;;5046381;28;20040;-49
2021/12/10 04:49:17;;;;;;;0.17;0.08;;;18.00;51.20;;;;;;5048242;28;20072;-50
2021/12/10 04:51:46;;;;;;;0.90;0.10;;;18.00;51.20;;;;;;5045759;28;20067;-50
2021/12/10 04:54:15;;;;;;;0.10;0.10;;;18.00;51.30;;;;;;5045634;28;20623;-52
2021/12/10 04:56:44;;;;;;;0.63;0.10;;;18.00;51.30;;;;;;5045134;28;20056;-48
2021/12/10 04:59:16;;;;;;;1.48;0.03;;;18.00;51.40;;;;;;5047436;28;20507;-50
2021/12/10 05:01:43;;;;;;;0.22;0.10;;;18.00;51.30;;;;;;5046262;28;20045;-52
2021/12/10 05:04:12;;;;;;;1.35;0.05;;;18.00;51.40;;;;;;5041652;28;20048;-50
2021/12/10 05:06:40;;;;;;;1.35;0.20;;;18.00;51.40;;;;;;5038042;28;20051;-52
2021/12/10 05:09:10;;;;;;;1.92;0.10;;;18.00;51.40;;;;;;5041398;28;20068;-49
2021/12/10 05:11:37;;;;;;;1.00;0.20;;;18.00;51.50;;;;;;5044504;28;20041;-50
2021/12/10 05:14:05;;;;;;;2.17;0.10;;;18.00;51.40;;;;;;5046860;28;20048;-49
2021/12/10 05:16:34;;;;;;;3.03;0.10;;;18.00;51.40;;;;;;5044264;28;20048;-48
2021/12/10 05:19:04;;;;;;;2.42;0.10;;;18.00;51.50;;;;;;5039651;28;20052;-50
2021/12/10 05:21:33;;;;;;;1.65;0.10;;;18.00;51.50;;;;;;5044471;28;20124;-49
2021/12/10 05:24:02;;;;;;;2.83;0.10;;;18.00;51.40;;;;;;5044132;28;20048;-50
2021/12/10 05:26:29;;;;;;;1.23;0.10;;;18.00;51.50;;;;;;5044738;28;20684;-50
2021/12/10 05:28:56;;;;;;;1.25;0.13;;;18.00;51.50;;;;;;5044767;28;20131;-50
2021/12/10 05:31:24;;;;;;;1.20;0.17;;;18.00;51.50;;;;;;5045329;28;20041;-47
2021/12/10 05:33:53;;;;;;;4.00;0.52;;;18.00;51.60;;;;;;5042034;28;20037;-47
2021/12/10 05:36:20;;;;;;;0.80;0.15;;;18.00;51.50;;;;;;5044546;28;20047;-50
2021/12/10 05:38:47;;;;;;;2.90;0.10;;;18.00;51.60;;;;;;5043077;28;20049;-50
2021/12/10 05:41:14;;;;;;;2.45;0.13;;;18.00;51.50;;;;;;5045496;28;20048;-47
2021/12/10 05:43:43;;;;;;;1.35;0.10;;;18.00;51.50;;;;;;5044714;28;20049;-50
2021/12/10 05:46:11;;;;;;;0.85;0.10;;;18.00;51.50;;;;;;5044250;28;20037;-48
2021/12/10 05:48:38;;;;;;;1.23;0.03;;;18.00;51.50;;;;;;5044134;28;20131;-49
2021/12/10 05:51:07;;;;;;;0.52;0.35;;;18.00;51.50;;;;;;5044194;28;20048;-46
2021/12/10 05:53:34;;;;;;;1.42;0.00;;;18.00;51.60;;;;;;5043886;28;20044;-53
2021/12/10 05:56:01;;;;;;;1.00;0.10;;;18.00;51.60;;;;;;5044003;28;20044;-48
2021/12/10 05:58:29;;;;;;;1.63;0.32;;;18.00;51.70;;;;;;5058079;28;20080;-49
2021/12/10 06:01:02;;;;;;;1.33;0.20;;;18.00;51.70;;;;;;5038077;28;20044;-48
2021/12/10 06:03:30;;;;;;;2.17;0.10;;;18.00;51.70;;;;;;5043189;28;20041;-49
2021/12/10 06:05:57;;;;;;;0.73;0.30;;;18.00;51.80;;;;;;5044320;28;20048;-49
2021/12/10 06:08:25;;;;;;;0.20;0.10;;;18.00;51.90;;;;;;5044442;28;20048;-48
2021/12/10 06:10:55;;;;;;;0.15;0.10;;;18.00;51.90;;;;;;5045675;28;20118;-49
2021/12/10 06:13:22;;;;;;;2.10;0.10;;;18.00;51.90;;;;;;5043927;28;20040;-51
2021/12/10 06:15:50;;;;;;;1.30;0.10;;;18.00;52.00;;;;;;5043027;28;20509;-48
2021/12/10 06:18:17;;;;;;;1.55;0.10;;;18.00;52.00;;;;;;5043794;28;20041;-46
2021/12/10 06:20:48;;;;;;;1.73;0.25;;;18.00;52.00;;;;;;5043928;28;20419;-48
2021/12/10 06:23:16;;;;;;;1.15;0.10;;;18.00;52.10;;;;;;5041173;28;20397;-49
2021/12/10 06:25:45;;;;;;;1.48;0.10;;;18.00;52.10;;;;;;5044384;28;20049;-49
2021/12/10 06:28:13;;;;;;;1.13;0.10;;;18.00;52.00;;;;;;5043674;28;20462;-46
2021/12/10 06:30:43;;;;;;;0.20;0.10;;;18.00;52.00;;;;;;5045855;28;20037;-48
2021/12/10 06:33:13;;;;;;;2.38;0.00;;;18.00;52.10;;;;;;5047873;28;20509;-49
2021/12/10 06:35:45;;;;;;;0.85;0.10;;;18.00;52.10;;;;;;5048075;28;20052;-48
2021/12/10 06:38:12;;;;;;;1.85;0.40;;;18.00;52.10;;;;;;5046777;28;20043;-51
2021/12/10 06:40:41;;;;;;;1.23;0.10;;;18.00;52.10;;;;;;5047891;28;20041;-50
2021/12/10 06:43:11;;;;;;;1.83;0.10;;;18.00;52.10;;;;;;5048454;28;20049;-47
2021/12/10 06:45:39;;;;;;;0.88;0.10;;;18.00;52.10;;;;;;5047566;28;20045;-50
2021/12/10 06:48:09;;;;;;;3.90;0.10;;;18.00;52.10;;;;;;5047759;28;20470;-48
2021/12/10 06:50:40;;;;;;;0.60;0.10;;;18.00;52.10;;;;;;5047548;28;20049;-50
2021/12/10 06:53:07;;;;;;;2.03;0.10;;;18.00;52.20;;;;;;5049332;28;20045;-50
2021/12/10 06:55:35;;;;;;;1.83;0.10;;;18.00;52.20;;;;;;5047993;28;20421;-49
2021/12/10 06:58:04;;;;;;;2.47;0.10;;;18.00;52.20;;;;;;5047137;28;20072;-49
2021/12/10 07:00:41;;;;;;;1.98;0.10;;;17.90;52.20;;;;;;5044676;28;20129;-53
2021/12/10 07:03:08;;;;;;;0.68;0.10;;;18.00;52.30;;;;;;5047503;28;20033;-49
2021/12/10 07:05:35;;;;;;;0.85;0.30;;;17.90;52.20;;;;;;5046497;28;20094;-53
2021/12/10 07:08:03;;;;;;;0.88;0.10;;;17.90;52.20;;;;;;5049207;28;20049;-50
2021/12/10 07:10:30;;;;;;;0.30;0.10;;;17.90;52.20;;;;;;5047550;28;20405;-50
2021/12/10 07:12:57;;;;;;;3.40;0.20;;;17.90;52.20;;;;;;5047669;28;20064;-48
2021/12/10 07:15:25;;;;;;;0.68;0.10;;;17.90;52.20;;;;;;5047293;28;20041;-49
2021/12/10 07:17:54;;;;;;;1.98;0.32;;;17.90;52.20;;;;;;5047637;28;20041;-47
2021/12/10 07:20:25;;;;;;;3.92;0.40;;;17.90;52.20;;;;;;5047987;28;20044;-47
2021/12/10 07:22:53;;;;;;;0.63;0.10;;;17.90;52.30;;;;;;5048550;28;20044;-49
2021/12/10 07:25:21;;;;;;;0.40;0.25;;;17.90;52.30;;;;;;5046785;28;20131;-46
2021/12/10 07:27:49;;;;;;;0.75;0.10;;;17.90;52.30;;;;;;5047168;28;20413;-48
2021/12/10 07:30:18;;;;;;;0.68;0.17;;;17.90;52.30;;;;;;5046996;28;20049;-49
2021/12/10 07:32:45;;;;;;;4.28;0.20;;;17.90;52.40;;;;;;5045178;28;20033;-48
2021/12/10 07:35:14;;;;;;;1.77;0.10;;;17.90;52.40;;;;;;5048940;28;20041;-51
2021/12/10 07:37:42;;;;;;;1.58;0.10;;;18.00;52.60;;;;;;5046649;28;20041;-48
2021/12/10 07:40:13;;;;;;;1.92;0.28;;;17.90;52.50;;;;;;5045330;28;20504;-48
2021/12/10 07:42:41;;;;;;;1.92;0.52;;;17.90;52.60;;;;;;5045948;28;20076;-47
2021/12/10 07:45:10;;;;;;;1.80;0.60;;;17.90;52.60;;;;;;5046917;28;20037;-48
2021/12/10 07:47:38;;;;;;;1.42;0.10;;;17.90;52.60;;;;;;5046481;28;20057;-50
2021/12/10 07:50:09;;;;;;;0.40;0.10;;;17.90;52.60;;;;;;5048434;28;20045;-47
2021/12/10 07:52:40;;;;;;;4.30;0.30;;;17.90;52.70;;;;;;5046668;28;20484;-47
2021/12/10 07:55:13;;;;;;;2.53;0.20;;;17.90;52.70;;;;;;5046389;28;20056;-48
2021/12/10 07:57:42;;;;;;;0.63;0.30;;;17.90;52.70;;;;;;5046885;28;20055;-51
2021/12/10 08:00:13;;;;;;;1.08;0.30;;;17.90;52.70;;;;;;5046519;28;20543;-47
2021/12/10 08:02:44;;;;;;;3.00;0.20;;;17.90;52.70;;;;;;5040606;28;20045;-48
2021/12/10 08:05:13;;;;;;;0.68;0.10;;;17.90;52.70;;;;;;5048284;28;20136;-51
2021/12/10 08:07:42;;;;;;;0.85;0.35;;;17.90;52.70;;;;;;5046942;28;20041;-47
2021/12/10 08:10:11;;;;;;;0.95;0.10;;;17.90;52.80;;;;;;5046233;28;20052;-48
2021/12/10 08:12:38;;;;;;;3.22;0.40;;;17.90;52.80;;;;;;5046326;28;20135;-48
2021/12/10 08:15:08;;;;;;;1.45;0.35;;;17.90;52.80;;;;;;5046136;28;20465;-48
2021/12/10 08:17:36;;;;;;;0.55;0.30;;;17.90;52.80;;;;;;5046168;28;20045;-50
2021/12/10 08:20:05;;;;;;;0.98;0.45;;;17.80;52.80;;;;;;5047972;28;20131;-49
2021/12/10 08:22:33;;;;;;;3.05;0.50;;;17.80;52.80;;;;;;5046111;28;20087;-51
2021/12/10 08:25:02;;;;;;;2.72;1.15;;;17.80;52.90;;;;;;5045992;28;20138;-51
2021/12/10 08:27:29;;;;;;;2.35;0.30;;;17.80;52.90;;;;;;5046080;28;20033;-46
2021/12/10 08:30:02;;;;;;;1.02;0.30;;;17.80;52.90;;;;;;5045927;28;20047;-47
2021/12/10 08:32:29;;;;;;;3.50;0.57;;;17.80;53.00;;;;;;5044153;28;20036;-49
2021/12/10 08:34:57;;;;;;;1.33;1.02;;;17.80;53.00;;;;;;5046525;28;20504;-49
2021/12/10 08:37:24;;;;;;;2.28;0.60;;;17.80;53.00;;;;;;5045881;28;20545;-49
2021/12/10 08:39:52;;;;;;;5.15;1.00;;;17.80;53.10;;;;;;5045163;28;20048;-48
2021/12/10 08:42:20;;;;;;;3.10;1.55;;;17.80;53.10;;;;;;5044728;28;20424;-49
2021/12/10 08:44:50;;;;;;;4.65;1.55;;;17.80;53.20;;;;;;5045650;28;20060;-52
2021/12/10 08:47:17;;;;;;;3.53;1.67;;;17.80;53.20;;;;;;5046744;28;20521;-50
2021/12/10 08:49:45;;;;;;;8.32;1.55;;;17.80;53.30;;;;;;5046513;28;20051;-52
2021/12/10 08:52:14;;;;;;;3.28;1.35;;;17.80;53.30;;;;;;5048852;28;20049;-50
2021/12/10 08:54:43;;;;;;;2.15;1.00;;;17.80;53.40;;;;;;5045073;28;20124;-49
2021/12/10 08:57:10;;;;;;;4.93;1.63;;;17.80;53.40;;;;;;5044864;28;20398;-51
2021/12/10 08:59:40;;;;;;;4.70;2.03;;;17.80;53.40;;;;;;5045620;28;20049;-51
2021/12/10 09:02:10;;;;;;;4.78;1.85;;;17.80;53.50;;;;;;5047013;28;20095;-49
2021/12/10 09:04:38;;;;;;;2.92;2.03;;;17.80;53.50;;;;;;5045234;28;20128;-47
2021/12/10 09:07:07;;;;;;;5.13;1.63;;;17.80;53.50;;;;;;5045182;28;20044;-48
2021/12/10 09:09:36;;;;;;;2.25;1.58;;;17.80;53.50;;;;;;5044336;28;20037;-54
2021/12/10 09:12:07;;;;;;;2.67;1.70;;;17.80;53.50;;;;;;5044791;28;20040;-53
2021/12/10 09:14:41;;;;;;;2.83;1.75;;;17.80;53.50;;;;;;5045239;28;20123;-52
2021/12/10 09:17:11;;;;;;;2.80;1.90;;;17.80;53.50;;;;;;5046450;28;20048;-53
2021/12/10 09:19:39;;;;;;;4.88;1.88;;;17.80;53.50;;;;;;5045212;28;20811;-47
2021/12/10 09:22:08;;;;;;;5.32;2.03;;;17.80;53.50;;;;;;5045466;28;20049;-51
2021/12/10 09:24:37;;;;;;;5.15;2.47;;;17.80;53.50;;;;;;5045216;28;20096;-49
2021/12/10 09:27:05;;;;;;;3.63;1.30;;;17.80;53.50;;;;;;5044810;28;20095;-44
2021/12/10 09:29:36;;;;;;;4.00;1.88;;;17.80;53.60;;;;;;5044875;28;20041;-46
2021/12/10 09:32:05;;;;;;;4.85;1.83;;;17.90;53.70;;;;;;5046943;28;20048;-43
2021/12/10 09:34:34;;;;;;;6.90;2.20;;;17.90;53.70;;;;;;5045100;28;20139;-45
2021/12/10 09:37:02;;;;;;;3.22;1.52;;;17.90;53.70;;;;;;5045033;28;20048;-43
2021/12/10 09:39:31;;;;;;;5.78;1.83;;;17.90;53.80;;;;;;5044934;28;20416;-47
2021/12/10 09:41:59;;;;;;;10.30;2.90;;;17.90;53.80;;;;;;5044779;28;20124;-45
2021/12/10 09:44:28;;;;;;;3.10;1.05;;;17.90;53.80;;;;;;5045255;28;20041;-46
2021/12/10 09:46:56;;;;;;;4.15;1.88;;;17.90;53.80;;;;;;5046582;28;20059;-44
2021/12/10 09:49:24;;;;;;;4.50;1.70;;;18.00;53.80;;;;;;5044800;28;20561;-46
2021/12/10 09:51:56;;;;;;;3.20;1.75;;;18.00;53.80;;;;;;5045247;28;20041;-45
2021/12/10 09:54:26;;;;;;;3.70;1.85;;;18.00;53.80;;;;;;5044397;28;20123;-49
2021/12/10 09:57:00;;;;;;;1.90;1.00;;;18.00;53.70;;;;;;5040757;28;20055;-47
2021/12/10 09:59:27;;;;;;;2.25;0.85;;;18.00;53.70;;;;;;5045200;28;20051;-46
2021/12/10 10:01:57;;;;;;;3.28;1.33;;;18.00;53.70;;;;;;5044421;28;20036;-44
2021/12/10 10:04:26;;;;;;;3.72;1.00;;;18.10;53.70;;;;;;5046893;28;20049;-45
2021/12/10 10:06:58;;;;;;;3.70;1.00;;;18.10;53.60;;;;;;5038529;28;20041;-44
2021/12/10 10:09:26;;;;;;;3.42;0.70;;;18.10;53.50;;;;;;5037925;28;20045;-46
2021/12/10 10:11:58;;;;;;;1.75;1.30;;;18.10;53.50;;;;;;5044591;28;20036;-44
2021/12/10 10:14:26;;;;;;;2.28;1.10;;;18.10;53.40;;;;;;5044771;28;20044;-45
2021/12/10 10:16:54;;;;;;;2.58;0.55;;;18.10;53.30;;;;;;5045663;28;20045;-44
2021/12/10 10:19:22;;;;;;;5.93;0.80;;;18.20;53.90;;;;;;5044299;28;20067;-45
2021/12/10 10:21:53;;;;;;;4.55;1.00;;;18.20;53.30;;;;;;5044477;28;20037;-46
2021/12/10 10:24:24;;;;;;;1.50;0.82;;;18.20;53.20;;;;;;5043946;28;20044;-50
2021/12/10 10:26:56;;;;;;;1.30;0.40;;;18.20;53.20;;;;;;5044455;28;20040;-45
2021/12/10 10:29:27;;;;;;;1.45;0.70;;;18.30;53.20;;;;;;5044230;28;20041;-46
2021/12/10 10:32:00;;;;;;;3.17;0.73;;;18.30;53.10;;;;;;5045970;28;20041;-45
2021/12/10 10:34:28;;;;;;;2.55;0.60;;;18.30;53.00;;;;;;5044555;28;20049;-45
2021/12/10 10:36:56;;;;;;;1.35;0.73;;;18.30;53.00;;;;;;5044366;28;20041;-46
2021/12/10 10:39:32;;;;;;;4.60;0.98;;;18.30;52.80;;;;;;5043893;28;20584;-46
2021/12/10 10:41:59;;;;;;;;;;;18.40;52.80;;;;;;5045098;28;20120;-46
2021/12/10 10:44:26;;;;;;;1.35;0.30;;;18.40;52.80;;;;;;5044747;28;19924;-45
2021/12/10 10:46:56;;;;;;;1.10;0.50;;;18.30;52.70;;;;;;5045828;28;20064;-45
2021/12/10 10:49:34;;;;;;;1.88;1.05;;;18.40;52.70;;;;;;5044447;28;20048;-45
2021/12/10 10:52:14;;;;;;;1.13;0.25;;;18.50;52.60;;;;;;5038068;28;20037;-44
2021/12/10 10:54:44;;;;;;;8.77;0.45;;;18.50;52.60;;;;;;5039025;28;20037;-47
2021/12/10 10:57:14;;;;;;;0.73;0.65;;;18.50;52.80;;;;;;5044177;28;20060;-47
2021/12/10 10:59:42;;;;;;;1.27;0.50;;;18.60;52.90;;;;;;5044006;28;20049;-44
2021/12/10 11:02:11;;;;;;;2.92;0.50;;;18.70;52.90;;;;;;5040067;28;20126;-43
2021/12/10 11:04:41;;;;;;;3.63;0.73;;;18.90;53.00;;;;;;5041697;28;20593;-45
2021/12/10 11:07:12;;;;;;;3.83;0.50;;;19.00;52.90;;;;;;5043993;28;20131;-46
2021/12/10 11:09:46;;;;;;;2.17;0.40;;;19.10;52.80;;;;;;5043063;28;20068;-48
2021/12/10 11:12:20;;;;;;;3.65;0.65;;;19.30;52.80;;;;;;5044087;28;20037;-46
2021/12/10 11:14:50;;;;;;;12.05;0.70;;;19.40;52.60;;;;;;5041355;28;20044;-48
2021/12/10 11:17:20;;;;;;;13.30;0.88;;;19.60;52.50;;;;;;5039455;28;20049;-53
2021/12/10 11:19:53;;;;;;;5.10;0.73;;;19.70;52.40;;;;;;5047915;28;20047;-54
2021/12/10 11:22:21;;;;;;;11.63;0.47;;;19.80;52.10;;;;;;5046818;28;20047;-50
2021/12/10 11:24:55;;;;;;;4.88;0.50;;;19.90;52.00;;;;;;5047207;28;20040;-60
2021/12/10 11:27:26;;;;;;;10.07;0.38;;;20.00;51.90;;;;;;5045773;28;20094;-47
2021/12/10 11:29:55;;;;;;;4.65;0.50;;;20.20;52.00;;;;;;5045941;28;20041;-47
2021/12/10 11:32:32;;;;;;;5.63;0.90;;;20.30;51.80;;;;;;5047571;28;20052;-48
2021/12/10 11:35:08;;;;;;;5.82;0.47;;;20.40;51.60;;;;;;5047298;28;20103;-49
2021/12/10 11:37:49;;;;;;;3.60;0.20;;;20.60;51.50;;;;;;5046487;28;20059;-58
2021/12/10 11:40:38;;;;;;;6.90;1.05;;;20.60;51.30;;;;;;5026933;28;20045;-56
2021/12/10 11:43:19;;;;;;;3.38;1.25;;;20.70;50.50;;;;;;5042770;28;20571;-61
2021/12/10 11:46:04;;;;;;;2.70;0.82;;;20.70;50.30;;;;;;5038676;28;20053;-55
2021/12/10 11:48:34;;;;;;;6.57;1.63;;;20.80;50.00;;;;;;5039229;28;21171;-58
2021/12/10 11:51:09;;;;;;;6.13;0.70;;;21.00;49.60;;;;;;5039110;28;20041;-57
2021/12/10 11:53:41;;;;;;;4.63;0.55;;;21.20;49.30;;;;;;5042548;28;20573;-44
2021/12/10 11:56:14;;;;;;;2.35;0.50;;;21.40;49.00;;;;;;5043524;28;20051;-50
2021/12/10 11:58:41;;;;;;;3.40;0.20;;;21.50;48.60;;;;;;5040723;28;20045;-58
2021/12/10 12:01:17;;;;;;;3.53;0.60;;;21.70;48.30;;;;;;5041625;28;20041;-53
2021/12/10 12:03:45;;;;;;;3.70;0.30;;;21.90;48.00;;;;;;5039837;28;20041;-54
2021/12/10 12:06:18;;;;;;;1.98;0.45;;;22.00;47.70;;;;;;5042833;28;20170;-56
2021/12/10 12:08:46;;;;;;;2.47;0.28;;;22.20;47.50;;;;;;5041351;28;20037;-57
2021/12/10 12:11:15;;;;;;;5.65;0.73;;;22.30;47.20;;;;;;5044082;28;20142;-60
2021/12/10 12:13:50;;;;;;;3.30;1.17;;;22.50;46.70;;;;;;5043669;28;20047;-62
2021/12/10 12:16:24;;;;;;;3.28;0.10;;;22.60;46.30;;;;;;5039665;28;20072;-64
2021/12/10 12:18:54;;;;;;;3.58;0.75;;;22.70;45.90;;;;;;5039520;28;20045;-64
2021/12/10 12:27:17;;;;;;;2.63;0.77;;;23.20;45.10;;;;;;5043098;28;20147;-65
2021/12/10 12:29:47;;;;;;;2.05;0.20;;;23.30;44.70;;;;;;5037246;28;20070;-69
2021/12/10 12:32:17;;;;;;;4.47;0.20;;;23.50;44.50;;;;;;5042069;28;20188;-61
2021/12/10 12:34:45;;;;;;;0.90;0.20;;;23.60;44.20;;;;;;5057898;28;20041;-60
2021/12/10 12:37:14;;;;;;;2.47;0.10;;;23.70;43.90;;;;;;5042973;28;20717;-63
2021/12/10 12:39:45;;;;;;;2.75;0.22;;;23.90;43.60;;;;;;5039031;28;20070;-57
2021/12/10 12:42:22;;;;;;;4.82;0.28;;;24.00;43.10;;;;;;5041250;28;20045;-49
2021/12/10 12:44:51;;;;;;;3.97;0.28;;;24.10;42.30;;;;;;5041427;28;20114;-59
2021/12/10 12:47:21;;;;;;;1.40;0.10;;;24.20;41.60;;;;;;5041983;28;20112;-46
2021/12/10 12:49:57;;;;;;;2.83;0.63;;;24.20;41.20;;;;;;5038278;28;20148;-44
2021/12/10 12:52:25;;;;;;;;;;;24.30;41.00;;;;;;5041328;28;20052;-45
2021/12/10 12:55:36;;;;;;;4.22;0.32;;;24.30;41.00;;;;;;5040349;28;19924;-54
2021/12/10 12:58:17;;;;;;;6.18;0.45;;;24.30;40.90;;;;;;5025324;28;20760;-61
2021/12/10 13:00:48;;;;;;;3.17;0.43;;;24.30;40.70;;;;;;5040065;28;20059;-61
2021/12/10 13:03:18;;;;;;;1.98;0.25;;;24.40;40.70;;;;;;5040997;28;20410;-60
2021/12/10 13:05:49;;;;;;;2.55;0.20;;;24.40;40.50;;;;;;5040766;28;20698;-61
2021/12/10 13:08:19;;;;;;;1.50;0.20;;;24.50;40.40;;;;;;5040360;28;20037;-61
2021/12/10 13:11:01;;;;;;;2.95;0.20;;;24.50;40.20;;;;;;5039406;28;20044;-60
2021/12/10 13:13:38;;;;;;;1.65;0.25;;;24.60;40.10;;;;;;5040216;28;20049;-61
2021/12/10 13:16:08;;;;;;;7.22;0.63;;;24.60;40.00;;;;;;5040091;28;20040;-61